createdAt,value
2018-11-12T00:01:24.767Z,20.65
2018-11-12T00:03:53.000Z,22.35
2018-11-12T00:06:21.237Z,19.55
2018-11-12T00:08:49.494Z,21.02
2018-11-12T00:11:17.761Z,20.77
2018-11-12T00:13:46.006Z,21.70
2018-11-12T00:16:14.264Z,21.33
2018-11-12T00:18:42.511Z,21.80
2018-11-12T00:21:10.725Z,21.57
2018-11-12T00:23:38.986Z,21.07
2018-11-12T00:26:07.617Z,21.82
2018-11-12T00:28:35.859Z,22.58
2018-11-12T00:31:04.146Z,22.20
2018-11-12T00:33:32.500Z,21.35
2018-11-12T00:36:00.701Z,22.42
2018-11-12T00:38:28.923Z,22.67
2018-11-12T00:40:57.202Z,22.15
2018-11-12T00:43:25.443Z,23.20
2018-11-12T00:45:53.681Z,23.38
2018-11-12T00:48:21.956Z,22.90
2018-11-12T00:50:50.177Z,22.98
2018-11-12T00:53:18.560Z,21.17
2018-11-12T00:55:46.825Z,22.25
2018-11-12T00:58:15.030Z,23.65
2018-11-12T01:00:43.360Z,22.90
2018-11-12T01:03:11.623Z,23.15
2018-11-12T01:05:39.952Z,22.82
2018-11-12T01:08:08.209Z,23.02
2018-11-12T01:10:36.510Z,23.30
2018-11-12T01:13:04.811Z,22.22
2018-11-12T01:15:33.121Z,22.80
2018-11-12T01:18:01.418Z,24.05
2018-11-12T01:20:29.669Z,23.77
2018-11-12T01:22:57.920Z,24.30
2018-11-12T01:25:26.265Z,24.65
2018-11-12T01:27:54.533Z,24.80
2018-11-12T01:30:22.804Z,22.93
2018-11-12T01:32:51.895Z,24.92
2018-11-12T01:35:20.110Z,24.67
2018-11-12T01:37:48.399Z,22.15
2018-11-12T01:40:16.958Z,23.67
2018-11-12T01:42:45.473Z,22.22
2018-11-12T01:45:15.818Z,22.17
2018-11-12T01:47:45.351Z,23.92
2018-11-12T01:50:14.125Z,21.90
2018-11-12T01:52:43.165Z,22.27
2018-11-12T01:55:13.519Z,24.05
2018-11-12T01:57:42.049Z,24.35
2018-11-12T02:00:15.636Z,24.87
2018-11-12T02:02:45.902Z,23.75
2018-11-12T02:05:14.142Z,24.75
2018-11-12T02:07:42.417Z,25.00
2018-11-12T02:10:12.105Z,23.65
2018-11-12T02:12:40.674Z,25.85
2018-11-12T02:15:11.454Z,23.10
2018-11-12T02:17:39.710Z,23.57
2018-11-12T02:20:09.929Z,24.87
2018-11-12T02:22:38.283Z,23.30
2018-11-12T02:25:07.235Z,23.22
2018-11-12T02:27:35.769Z,24.55
2018-11-12T02:30:04.566Z,23.50
2018-11-12T02:32:32.803Z,23.18
2018-11-12T02:35:01.123Z,22.45
2018-11-12T02:37:29.392Z,22.93
2018-11-12T02:39:57.729Z,22.07
2018-11-12T02:42:25.953Z,23.47
2018-11-12T02:44:54.282Z,22.60
2018-11-12T02:47:22.554Z,23.80
2018-11-12T02:49:50.822Z,23.67
2018-11-12T02:52:19.053Z,22.65
2018-11-12T02:54:47.271Z,22.22
2018-11-12T02:57:15.588Z,23.30
2018-11-12T02:59:43.829Z,24.47
2018-11-12T03:02:12.122Z,23.52
2018-11-12T03:04:40.417Z,24.45
2018-11-12T03:07:08.698Z,24.12
2018-11-12T03:09:37.038Z,24.80
2018-11-12T03:12:05.406Z,23.70
2018-11-12T03:14:33.635Z,24.70
2018-11-12T03:17:01.910Z,23.62
2018-11-12T03:19:30.103Z,24.55
2018-11-12T03:21:58.470Z,25.17
2018-11-12T03:24:26.676Z,23.18
2018-11-12T03:26:54.910Z,24.32
2018-11-12T03:29:23.203Z,25.27
2018-11-12T03:31:51.406Z,24.47
2018-11-12T03:34:19.632Z,22.65
2018-11-12T03:36:47.869Z,24.92
2018-11-12T03:39:16.130Z,24.27
2018-11-12T03:41:44.353Z,21.93
2018-11-12T03:44:12.554Z,22.90
2018-11-12T03:46:40.778Z,23.25
2018-11-12T03:49:09.042Z,23.38
2018-11-12T03:51:37.310Z,22.98
2018-11-12T03:54:05.787Z,21.60
2018-11-12T03:56:34.114Z,22.98
2018-11-12T03:59:02.418Z,20.45
2018-11-12T04:01:36.098Z,22.37
2018-11-12T04:04:04.346Z,21.50
2018-11-12T04:06:32.669Z,21.68
2018-11-12T04:09:00.969Z,20.30
2018-11-12T04:11:29.165Z,21.23
2018-11-12T04:13:57.422Z,20.00
2018-11-12T04:16:25.753Z,20.25
2018-11-12T04:18:53.989Z,20.43
2018-11-12T04:21:22.185Z,19.82
2018-11-12T04:23:50.422Z,19.42
2018-11-12T04:26:18.623Z,19.80
2018-11-12T04:28:46.893Z,18.95
2018-11-12T04:31:15.137Z,18.37
2018-11-12T04:33:43.376Z,19.67
2018-11-12T04:36:11.580Z,18.70
2018-11-12T04:38:39.849Z,18.92
2018-11-12T04:41:08.086Z,19.00
2018-11-12T04:43:36.373Z,17.67
2018-11-12T04:46:04.617Z,18.45
2018-11-12T04:48:32.865Z,17.70
2018-11-12T04:51:01.124Z,17.32
2018-11-12T04:53:29.428Z,17.45
2018-11-12T04:55:57.638Z,17.45
2018-11-12T04:58:25.851Z,18.00
2018-11-12T05:00:54.077Z,17.45
2018-11-12T05:03:22.325Z,16.87
2018-11-12T05:05:50.634Z,16.95
2018-11-12T05:08:18.855Z,17.35
2018-11-12T05:10:47.128Z,16.10
2018-11-12T05:13:15.353Z,15.95
2018-11-12T05:15:43.581Z,16.30
2018-11-12T05:18:11.823Z,15.98
2018-11-12T05:20:40.162Z,16.23
2018-11-12T05:23:08.380Z,16.73
2018-11-12T05:25:36.688Z,16.23
2018-11-12T05:28:05.088Z,16.85
2018-11-12T05:30:33.321Z,17.37
2018-11-12T05:33:01.588Z,17.27
2018-11-12T05:35:30.245Z,15.90
2018-11-12T05:37:58.586Z,16.52
2018-11-12T05:40:28.647Z,17.98
2018-11-12T05:42:56.963Z,16.07
2018-11-12T05:45:27.348Z,16.50
2018-11-12T05:47:55.698Z,16.25
2018-11-12T05:50:27.322Z,16.85
2018-11-12T05:53:00.845Z,16.42
2018-11-12T05:55:29.967Z,15.78
2018-11-12T05:57:58.449Z,17.75
2018-11-12T06:00:32.881Z,18.02
2018-11-12T06:03:01.392Z,18.05
2018-11-12T06:05:29.797Z,17.42
2018-11-12T06:07:58.025Z,17.90
2018-11-12T06:10:27.722Z,18.10
2018-11-12T06:12:56.208Z,20.00
2018-11-12T06:15:24.433Z,17.60
2018-11-12T06:17:52.844Z,17.80
2018-11-12T06:20:22.392Z,20.32
2018-11-12T06:22:50.797Z,18.77
2018-11-12T06:25:20.237Z,19.80
2018-11-12T06:27:48.718Z,19.90
2018-11-12T06:30:18.265Z,21.33
2018-11-12T06:32:46.515Z,20.08
2018-11-12T06:35:15.348Z,21.17
2018-11-12T06:37:44.172Z,20.90
2018-11-12T06:40:13.990Z,21.87
2018-11-12T06:42:42.413Z,21.10
2018-11-12T06:45:12.621Z,22.25
2018-11-12T06:47:41.473Z,21.37
2018-11-12T06:50:11.498Z,21.20
2018-11-12T06:52:39.737Z,21.20
2018-11-12T06:55:09.373Z,22.02
2018-11-12T06:57:37.719Z,22.25
2018-11-12T07:00:11.363Z,22.07
2018-11-12T07:02:39.629Z,21.73
2018-11-12T07:05:08.842Z,21.48
2018-11-12T07:07:37.435Z,22.62
2018-11-12T07:10:07.214Z,22.65
2018-11-12T07:12:35.486Z,22.77
2018-11-12T07:15:03.858Z,22.85
2018-11-12T07:17:32.117Z,22.50
2018-11-12T07:20:00.522Z,21.95
2018-11-12T07:22:28.811Z,22.27
2018-11-12T07:24:57.072Z,23.35
2018-11-12T07:27:25.345Z,23.65
2018-11-12T07:29:53.588Z,22.37
2018-11-12T07:32:21.820Z,22.85
2018-11-12T07:34:50.145Z,22.82
2018-11-12T07:37:18.354Z,25.02
2018-11-12T07:39:46.621Z,23.15
2018-11-12T07:42:14.929Z,23.35
2018-11-12T07:44:43.141Z,24.43
2018-11-12T07:47:11.396Z,23.67
2018-11-12T07:49:39.614Z,23.05
2018-11-12T07:52:07.861Z,23.90
2018-11-12T07:54:36.086Z,23.60
2018-11-12T07:57:04.654Z,21.65
2018-11-12T07:59:32.921Z,22.93
2018-11-12T08:02:01.169Z,22.77
2018-11-12T08:04:29.414Z,22.50
2018-11-12T08:06:57.689Z,23.83
2018-11-12T08:09:25.947Z,22.90
2018-11-12T08:11:54.147Z,22.00
2018-11-12T08:14:22.403Z,23.45
2018-11-12T08:16:50.709Z,23.25
2018-11-12T08:19:19.051Z,24.00
2018-11-12T08:21:47.392Z,22.87
2018-11-12T08:24:15.656Z,22.05
2018-11-12T08:26:43.842Z,23.47
2018-11-12T08:29:12.046Z,23.73
2018-11-12T08:31:40.310Z,22.00
2018-11-12T08:34:08.573Z,23.02
2018-11-12T08:36:36.837Z,24.60
2018-11-12T08:39:06.724Z,22.85
2018-11-12T08:41:34.854Z,24.30
2018-11-12T08:44:03.242Z,23.62
2018-11-12T08:46:31.514Z,23.70
2018-11-12T08:48:59.798Z,23.60
2018-11-12T08:51:27.934Z,23.40
2018-11-12T08:53:56.185Z,23.62
2018-11-12T08:56:24.413Z,23.52
2018-11-12T08:58:52.666Z,23.40
2018-11-12T09:01:20.950Z,22.45
2018-11-12T09:03:49.238Z,23.38
2018-11-12T09:06:17.537Z,21.20
2018-11-12T09:08:45.750Z,23.75
2018-11-12T09:11:13.979Z,22.75
2018-11-12T09:13:42.795Z,21.95
2018-11-12T09:16:10.586Z,23.90
2018-11-12T09:18:38.793Z,22.45
2018-11-12T09:21:07.009Z,21.73
2018-11-12T09:23:35.237Z,21.30
2018-11-12T09:26:03.494Z,22.17
2018-11-12T09:28:31.882Z,20.90
2018-11-12T09:31:01.364Z,22.40
2018-11-12T09:33:28.303Z,21.40
2018-11-12T09:35:56.582Z,21.15
2018-11-12T09:38:24.821Z,20.43
2018-11-12T09:40:53.153Z,22.37
2018-11-12T09:43:21.382Z,21.85
2018-11-12T09:45:49.663Z,21.55
2018-11-12T09:48:17.918Z,22.50
2018-11-12T09:50:46.213Z,23.12
2018-11-12T09:53:15.494Z,21.35
2018-11-12T09:55:43.784Z,21.93
2018-11-12T09:58:11.986Z,21.05
2018-11-12T10:00:40.388Z,21.68
2018-11-12T10:03:09.185Z,23.47
2018-11-12T10:05:38.238Z,21.17
2018-11-12T10:08:10.030Z,22.15
2018-11-12T10:10:42.321Z,22.00
2018-11-12T10:13:12.920Z,22.98
2018-11-12T10:15:41.213Z,21.30
2018-11-12T10:18:09.206Z,21.42
2018-11-12T10:20:35.245Z,21.48
2018-11-12T10:23:03.562Z,21.00
2018-11-12T10:25:31.822Z,21.42
2018-11-12T10:28:00.062Z,21.00
2018-11-12T10:30:28.445Z,22.22
2018-11-12T10:32:56.666Z,21.52
2018-11-12T10:35:24.918Z,21.80
2018-11-12T10:37:53.230Z,20.12
2018-11-12T10:40:22.551Z,19.52
2018-11-12T10:42:50.829Z,19.30
2018-11-12T10:45:19.098Z,18.98
2018-11-12T10:47:48.496Z,18.85
2018-11-12T10:50:16.764Z,17.73
2018-11-12T10:52:45.025Z,18.15
2018-11-12T10:55:15.174Z,16.05
2018-11-12T10:57:43.976Z,16.93
2018-11-12T11:00:35.478Z,16.25
2018-11-12T11:03:10.482Z,15.75
2018-11-12T11:05:39.809Z,14.73
2018-11-12T11:08:08.095Z,14.70
2018-11-12T11:10:36.480Z,15.53
2018-11-12T11:13:05.357Z,13.20
2018-11-12T11:15:34.440Z,13.32
2018-11-12T11:18:02.709Z,14.00
2018-11-12T11:20:33.712Z,12.70
2018-11-12T11:23:02.325Z,14.45
2018-11-12T11:25:30.629Z,13.65
2018-11-12T11:27:58.950Z,11.50
2018-11-12T11:30:27.284Z,13.00
2018-11-12T11:32:55.589Z,12.55
2018-11-12T11:35:23.817Z,14.15
2018-11-12T11:37:52.160Z,13.10
2018-11-12T11:40:22.932Z,10.68
2018-11-12T11:42:51.033Z,11.15
2018-11-12T11:45:19.698Z,10.30
2018-11-12T11:47:49.013Z,12.45
2018-11-12T11:50:18.566Z,11.95
2018-11-12T11:52:46.789Z,11.75
2018-11-12T11:55:16.406Z,11.10
2018-11-12T11:57:44.969Z,13.80
2018-11-12T12:00:15.535Z,12.20
2018-11-12T12:02:44.758Z,12.05
2018-11-12T12:05:14.004Z,12.90
2018-11-12T12:07:42.355Z,10.38
2018-11-12T12:10:11.526Z,11.48
2018-11-12T12:12:40.141Z,11.55
2018-11-12T12:15:10.218Z,11.18
2018-11-12T12:17:38.686Z,11.85
2018-11-12T12:20:08.535Z,11.50
2018-11-12T12:22:36.745Z,11.18
2018-11-12T12:25:06.426Z,11.25
2018-11-12T12:27:34.755Z,11.70
2018-11-12T12:30:03.058Z,9.53
2018-11-12T12:32:31.280Z,9.73
2018-11-12T12:34:59.562Z,8.65
2018-11-12T12:37:27.913Z,7.55
2018-11-12T12:39:56.178Z,7.70
2018-11-12T12:42:24.406Z,6.28
2018-11-12T12:44:52.697Z,6.37
2018-11-12T12:47:20.835Z,5.92
2018-11-12T12:49:49.077Z,4.95
2018-11-12T12:52:17.306Z,5.60
2018-11-12T12:54:45.565Z,6.15
2018-11-12T12:57:13.832Z,5.62
2018-11-12T12:59:42.075Z,6.62
2018-11-12T13:02:10.703Z,5.45
2018-11-12T13:04:38.973Z,7.37
2018-11-12T13:07:07.268Z,5.80
2018-11-12T13:09:35.547Z,6.42
2018-11-12T13:12:03.750Z,6.25
2018-11-12T13:14:32.034Z,7.20
2018-11-12T13:17:00.246Z,7.30
2018-11-12T13:19:28.611Z,6.60
2018-11-12T13:21:56.879Z,6.58
2018-11-12T13:24:25.132Z,8.88
2018-11-12T13:26:53.390Z,7.97
2018-11-12T13:29:21.881Z,8.10
2018-11-12T13:31:50.113Z,8.28
2018-11-12T13:34:18.456Z,7.75
2018-11-12T13:36:46.662Z,8.55
2018-11-12T13:39:14.958Z,8.10
2018-11-12T13:41:43.190Z,8.38
2018-11-12T13:44:11.671Z,6.12
2018-11-12T13:46:45.214Z,6.95
2018-11-12T13:49:13.495Z,6.58
2018-11-12T13:51:41.710Z,7.62
2018-11-12T13:54:10.118Z,6.97
2018-11-12T13:56:38.341Z,6.80
2018-11-12T13:59:06.627Z,6.60
2018-11-12T14:01:34.928Z,6.95
2018-11-12T14:04:03.249Z,7.00
2018-11-12T14:06:31.449Z,7.05
2018-11-12T14:08:59.667Z,6.15
2018-11-12T14:11:27.866Z,7.10
2018-11-12T14:13:56.511Z,7.58
2018-11-12T14:16:24.774Z,7.70
2018-11-12T14:18:53.086Z,7.00
2018-11-12T14:21:21.612Z,6.67
2018-11-12T14:23:49.568Z,7.75
2018-11-12T14:26:17.838Z,7.58
2018-11-12T14:28:46.184Z,6.90
2018-11-12T14:31:14.277Z,7.40
2018-11-12T14:33:42.506Z,7.65
2018-11-12T14:36:10.810Z,6.15
2018-11-12T14:38:39.054Z,6.37
2018-11-12T14:41:07.283Z,6.55
2018-11-12T14:43:35.546Z,6.10
2018-11-12T14:46:03.857Z,5.60
2018-11-12T14:48:32.139Z,5.80
2018-11-12T14:51:00.418Z,5.37
2018-11-12T14:53:28.581Z,5.95
2018-11-12T14:55:56.830Z,6.08
2018-11-12T14:58:25.039Z,6.05
2018-11-12T15:00:53.285Z,5.47
2018-11-12T15:03:21.562Z,5.53
2018-11-12T15:05:49.849Z,5.20
2018-11-12T15:08:18.041Z,5.90
2018-11-12T15:10:46.317Z,5.28
2018-11-12T15:13:14.513Z,5.35
2018-11-12T15:15:42.785Z,4.30
2018-11-12T15:18:11.014Z,4.75
2018-11-12T15:20:39.268Z,4.58
2018-11-12T15:23:07.645Z,5.47
2018-11-12T15:25:36.305Z,6.10
2018-11-12T15:28:04.629Z,5.35
2018-11-12T15:30:32.898Z,5.67
2018-11-12T15:33:01.251Z,5.75
2018-11-12T15:35:29.530Z,6.28
2018-11-12T15:37:57.795Z,6.50
2018-11-12T15:40:26.061Z,6.00
2018-11-12T15:42:54.295Z,6.00
2018-11-12T15:45:23.770Z,6.03
2018-11-12T15:47:52.162Z,6.15
2018-11-12T15:50:28.350Z,6.37
2018-11-12T15:52:56.599Z,6.40
2018-11-12T15:55:24.833Z,6.47
2018-11-12T15:57:53.562Z,5.58
2018-11-12T16:00:21.712Z,5.75
2018-11-12T16:02:49.938Z,6.33
2018-11-12T16:05:18.227Z,6.10
2018-11-12T16:07:46.469Z,5.95
2018-11-12T16:10:16.908Z,6.67
2018-11-12T16:12:45.152Z,6.20
2018-11-12T16:15:14.530Z,7.70
2018-11-12T16:17:42.854Z,6.83
2018-11-12T16:20:15.166Z,6.58
2018-11-12T16:22:44.362Z,5.97
2018-11-12T16:25:12.637Z,6.67
2018-11-12T16:27:41.258Z,6.92
2018-11-12T16:30:10.455Z,7.08
2018-11-12T16:32:39.254Z,7.92
2018-11-12T16:35:09.738Z,6.83
2018-11-12T16:37:37.944Z,7.50
2018-11-12T16:40:06.509Z,7.00
2018-11-12T16:42:34.727Z,6.60
2018-11-12T16:45:03.121Z,6.87
2018-11-12T16:47:31.446Z,7.12
2018-11-12T16:49:59.707Z,7.00
2018-11-12T16:52:27.945Z,7.87
2018-11-12T16:54:56.163Z,7.97
2018-11-12T16:57:24.427Z,8.10
2018-11-12T16:59:52.723Z,9.95
2018-11-12T17:02:21.077Z,10.72
2018-11-12T17:04:49.308Z,9.80
2018-11-12T17:07:17.541Z,10.10
2018-11-12T17:09:45.897Z,10.45
2018-11-12T17:12:14.159Z,10.60
2018-11-12T17:14:42.417Z,11.83
2018-11-12T17:17:10.706Z,10.95
2018-11-12T17:19:39.022Z,11.83
2018-11-12T17:22:07.269Z,12.37
2018-11-12T17:24:35.517Z,12.47
2018-11-12T17:27:03.829Z,11.93
2018-11-12T17:29:32.174Z,13.08
2018-11-12T17:32:00.513Z,12.88
2018-11-12T17:34:28.829Z,12.75
2018-11-12T17:36:57.114Z,13.22
2018-11-12T17:39:25.456Z,14.43
2018-11-12T17:41:53.746Z,14.10
2018-11-12T17:44:21.985Z,12.68
2018-11-12T17:46:50.266Z,13.55
2018-11-12T17:49:18.558Z,15.00
2018-11-12T17:51:46.867Z,14.13
2018-11-12T17:54:15.124Z,13.62
2018-11-12T17:56:43.398Z,14.85
2018-11-12T17:59:11.779Z,13.55
2018-11-12T18:01:40.172Z,14.20
2018-11-12T18:04:08.346Z,14.87
2018-11-12T18:06:36.617Z,15.05
2018-11-12T18:09:07.438Z,14.20
2018-11-12T18:11:35.718Z,16.52
2018-11-12T18:14:04.066Z,17.23
2018-11-12T18:16:32.441Z,15.90
2018-11-12T18:19:00.699Z,16.17
2018-11-12T18:21:28.984Z,18.10
2018-11-12T18:23:57.227Z,17.40
2018-11-12T18:26:25.723Z,18.07
2018-11-12T18:28:53.990Z,17.60
2018-11-12T18:31:22.267Z,17.15
2018-11-12T18:33:50.505Z,16.90
2018-11-12T18:36:18.718Z,15.13
2018-11-12T18:38:47.131Z,15.45
2018-11-12T18:41:15.386Z,15.70
2018-11-12T18:43:43.694Z,15.30
2018-11-12T18:46:11.990Z,15.05
2018-11-12T18:48:40.513Z,14.43
2018-11-12T18:51:08.949Z,14.58
2018-11-12T18:53:37.256Z,15.30
2018-11-12T18:56:06.064Z,16.05
2018-11-12T18:58:34.394Z,15.43
2018-11-12T19:01:02.721Z,14.33
2018-11-12T19:03:30.929Z,14.53
2018-11-12T19:05:59.146Z,14.45
2018-11-12T19:08:27.362Z,14.65
2018-11-12T19:10:55.780Z,14.47
2018-11-12T19:13:24.029Z,14.65
2018-11-12T19:15:52.265Z,13.75
2018-11-12T19:18:20.539Z,13.93
2018-11-12T19:20:48.877Z,12.98
2018-11-12T19:23:17.746Z,14.05
2018-11-12T19:25:45.961Z,13.80
2018-11-12T19:28:14.218Z,13.20
2018-11-12T19:30:42.426Z,13.40
2018-11-12T19:33:10.711Z,12.50
2018-11-12T19:35:39.018Z,13.45
2018-11-12T19:38:07.229Z,13.18
2018-11-12T19:40:35.522Z,12.80
2018-11-12T19:43:03.660Z,12.78
2018-11-12T19:45:31.923Z,12.20
2018-11-12T19:48:00.157Z,12.80
2018-11-12T19:50:29.303Z,13.50
2018-11-12T19:52:58.446Z,13.93
2018-11-12T19:55:26.650Z,12.28
2018-11-12T19:57:54.887Z,13.50
2018-11-12T20:00:25.600Z,13.18
2018-11-12T20:02:55.168Z,12.55
2018-11-12T20:05:23.471Z,14.33
2018-11-12T20:07:51.689Z,13.38
2018-11-12T20:10:20.957Z,13.22
2018-11-12T20:12:49.241Z,13.60
2018-11-12T20:15:19.798Z,15.03
2018-11-12T20:17:49.012Z,14.78
2018-11-12T20:20:18.906Z,16.10
2018-11-12T20:22:47.842Z,16.42
2018-11-12T20:25:17.164Z,15.80
2018-11-12T20:27:45.930Z,15.85
2018-11-12T20:30:18.819Z,16.60
2018-11-12T20:32:47.449Z,18.05
2018-11-12T20:35:15.753Z,16.25
2018-11-12T20:37:44.311Z,17.65
2018-11-12T20:40:13.443Z,19.12
2018-11-12T20:42:42.431Z,18.25
2018-11-12T20:45:11.834Z,17.45
2018-11-12T20:47:40.880Z,17.40
2018-11-12T20:50:10.085Z,19.25
2018-11-12T20:52:38.510Z,18.37
2018-11-12T20:55:07.725Z,19.30
2018-11-12T20:57:36.008Z,19.57
2018-11-12T21:00:04.662Z,20.70
2018-11-12T21:02:32.939Z,19.10
2018-11-12T21:05:01.108Z,18.15
2018-11-12T21:07:29.334Z,18.05
2018-11-12T21:09:57.586Z,19.23
2018-11-12T21:12:25.841Z,18.15
2018-11-12T21:14:54.094Z,17.48
2018-11-12T21:17:22.307Z,18.55
2018-11-12T21:19:50.555Z,18.45
2018-11-12T21:22:18.818Z,18.12
2018-11-12T21:24:47.153Z,18.37
2018-11-12T21:27:15.399Z,19.25
2018-11-12T21:29:43.631Z,18.52
2018-11-12T21:32:11.947Z,18.17
2018-11-12T21:34:40.238Z,17.90
2018-11-12T21:37:08.546Z,17.80
2018-11-12T21:39:36.786Z,19.25
2018-11-12T21:42:05.183Z,19.12
2018-11-12T21:44:33.426Z,18.17
2018-11-12T21:47:01.695Z,17.98
2018-11-12T21:49:30.031Z,18.10
2018-11-12T21:51:58.246Z,17.85
2018-11-12T21:54:26.574Z,18.70
2018-11-12T21:56:54.797Z,18.20
2018-11-12T21:59:23.095Z,18.20
2018-11-12T22:01:51.301Z,18.62
2018-11-12T22:04:19.570Z,17.55
2018-11-12T22:06:47.885Z,19.62
2018-11-12T22:09:16.166Z,19.10
2018-11-12T22:11:44.442Z,18.70
2018-11-12T22:14:12.675Z,17.10
2018-11-12T22:16:40.909Z,17.05
2018-11-12T22:19:09.405Z,18.30
2018-11-12T22:21:37.546Z,17.52
2018-11-12T22:24:05.795Z,17.75
2018-11-12T22:26:34.114Z,17.70
2018-11-12T22:29:02.413Z,17.20
2018-11-12T22:31:30.623Z,18.40
2018-11-12T22:33:58.858Z,19.02
2018-11-12T22:36:27.076Z,17.62
2018-11-12T22:38:55.287Z,17.20
2018-11-12T22:41:23.561Z,16.65
2018-11-12T22:43:51.773Z,17.15
2018-11-12T22:46:20.063Z,17.12
2018-11-12T22:48:48.270Z,17.80
2018-11-12T22:51:16.503Z,18.70
2018-11-12T22:53:44.803Z,17.37
2018-11-12T22:56:13.059Z,17.92
2018-11-12T22:58:41.253Z,18.75
2018-11-12T23:01:09.859Z,18.17
2018-11-12T23:03:38.158Z,15.80
2018-11-12T23:06:10.270Z,17.95
2018-11-12T23:08:38.645Z,18.12
2018-11-12T23:11:06.913Z,17.92
2018-11-12T23:13:35.134Z,16.00
2018-11-12T23:16:03.446Z,19.98
2018-11-12T23:18:31.666Z,17.77
2018-11-12T23:20:59.928Z,18.85
2018-11-12T23:23:28.150Z,16.07
2018-11-12T23:25:56.383Z,17.87
2018-11-12T23:28:28.541Z,18.70
2018-11-12T23:30:56.802Z,17.42
2018-11-12T23:33:25.118Z,18.52
2018-11-12T23:35:53.370Z,17.17
2018-11-12T23:38:21.641Z,17.57
2018-11-12T23:40:49.896Z,16.70
2018-11-12T23:43:18.257Z,17.42
2018-11-12T23:45:46.509Z,17.02
2018-11-12T23:48:14.718Z,17.65
2018-11-12T23:50:43.140Z,18.17
2018-11-12T23:53:11.407Z,17.73
2018-11-12T23:55:39.630Z,18.10
2018-11-12T23:58:07.930Z,18.25
